createdAt,value
2022-10-05T00:00:15.745Z,99254.88
2022-10-05T00:03:10.825Z,99261.22
2022-10-05T00:05:38.988Z,99263.06
2022-10-05T00:08:21.521Z,99266.56
2022-10-05T00:10:49.843Z,99269.22
2022-10-05T00:13:22.964Z,99262.25
2022-10-05T00:15:52.931Z,99255.22
2022-10-05T00:18:21.762Z,99257.91
2022-10-05T00:20:49.353Z,99257.91
2022-10-05T00:23:24.686Z,99255.22
2022-10-05T00:25:52.220Z,99253.59
2022-10-05T00:28:27.735Z,99258.94
2022-10-05T00:30:57.154Z,99258.09
2022-10-05T00:33:26.339Z,99241.22
2022-10-05T00:35:55.445Z,99243.91
2022-10-05T00:38:22.872Z,99241.22
2022-10-05T00:41:02.223Z,99244.94
2022-10-05T00:43:29.489Z,99236.94
2022-10-05T00:46:13.243Z,99231.59
2022-10-05T00:49:17.929Z,99235.06
2022-10-05T00:51:58.835Z,99233.44
2022-10-05T00:54:57.070Z,99223.75
2022-10-05T00:57:49.104Z,99213.25
2022-10-05T01:00:20.188Z,99204.22
2022-10-05T01:03:11.664Z,99202.56
2022-10-05T01:05:57.965Z,99197.22
2022-10-05T01:08:45.722Z,99188.38
2022-10-05T01:11:23.746Z,99185.91
2022-10-05T01:13:59.776Z,99183.22
2022-10-05T01:16:41.076Z,99184.91
2022-10-05T01:19:45.765Z,99183.22
2022-10-05T01:22:32.525Z,99182.41
2022-10-05T01:25:12.069Z,99188.56
2022-10-05T01:27:49.336Z,99193.09
2022-10-05T01:30:21.895Z,99199.25
2022-10-05T01:33:03.582Z,99202.97
2022-10-05T01:35:46.800Z,99206.63
2022-10-05T01:38:28.666Z,99209.31
2022-10-05T01:41:34.961Z,99219.16
2022-10-05T01:44:22.445Z,99228.00
2022-10-05T01:47:17.966Z,99219.97
2022-10-05T01:50:01.465Z,99211.16
2022-10-05T01:52:51.964Z,99205.81
2022-10-05T01:55:37.719Z,99195.34
2022-10-05T01:58:29.718Z,99199.84
2022-10-05T02:00:59.771Z,99191.00
2022-10-05T02:03:36.061Z,99191.00
2022-10-05T02:06:25.596Z,99180.31
2022-10-05T02:09:09.142Z,99177.84
2022-10-05T02:11:39.721Z,99176.00
2022-10-05T02:14:11.313Z,99178.69
2022-10-05T02:16:43.933Z,99178.69
2022-10-05T02:19:22.166Z,99171.66
2022-10-05T02:21:59.138Z,99182.34
2022-10-05T02:24:32.018Z,99177.00
2022-10-05T02:26:59.723Z,99162.03
2022-10-05T02:29:32.067Z,99153.16
2022-10-05T02:32:07.065Z,99162.03
2022-10-05T02:34:40.601Z,99155.00
2022-10-05T02:37:14.021Z,99163.03
2022-10-05T02:39:52.270Z,99173.69
2022-10-05T02:42:45.009Z,99163.03
2022-10-05T02:45:37.186Z,99151.53
2022-10-05T02:48:25.509Z,99161.38
2022-10-05T02:51:05.176Z,99167.53
2022-10-05T02:53:50.822Z,99161.38
2022-10-05T02:56:27.127Z,99166.72
2022-10-05T02:59:00.270Z,99177.41
2022-10-05T03:01:33.886Z,99174.09
2022-10-05T03:04:16.746Z,99178.41
2022-10-05T03:07:04.876Z,99173.06
2022-10-05T03:09:41.566Z,99186.41
2022-10-05T03:12:52.321Z,99189.09
2022-10-05T03:16:00.064Z,99194.63
2022-10-05T03:18:39.977Z,99209.81
2022-10-05T03:21:38.457Z,99204.47
2022-10-05T03:24:30.974Z,99213.53
2022-10-05T03:27:25.960Z,99209.81
2022-10-05T03:30:13.473Z,99208.19
2022-10-05T03:32:58.876Z,99216.19
2022-10-05T03:35:51.644Z,99211.84
2022-10-05T03:38:43.752Z,99221.53
2022-10-05T03:41:27.400Z,99230.53
2022-10-05T03:44:13.502Z,99220.88
2022-10-05T03:46:53.054Z,99204.88
2022-10-05T03:49:39.338Z,99186.19
2022-10-05T03:52:16.269Z,99176.50
2022-10-05T03:54:52.111Z,99181.84
2022-10-05T03:57:24.380Z,99168.47
2022-10-05T03:59:58.778Z,99171.16
2022-10-05T04:02:31.119Z,99165.00
2022-10-05T04:05:11.022Z,99157.16
2022-10-05T04:07:43.507Z,99159.66
2022-10-05T04:10:20.997Z,99135.00
2022-10-05T04:13:06.702Z,99134.00
2022-10-05T04:15:39.316Z,99138.69
2022-10-05T04:18:20.838Z,99143.00
2022-10-05T04:20:54.340Z,99150.19
2022-10-05T04:23:40.218Z,99150.19
2022-10-05T04:26:14.573Z,99154.72
2022-10-05T04:28:50.334Z,99169.91
2022-10-05T04:31:41.013Z,99166.22
2022-10-05T04:34:27.065Z,99167.25
2022-10-05T04:37:03.048Z,99169.91
2022-10-05T04:40:02.542Z,99173.41
2022-10-05T04:42:58.543Z,99171.72
2022-10-05T04:45:32.082Z,99180.59
2022-10-05T04:48:15.274Z,99177.91
2022-10-05T04:50:50.646Z,99175.44
2022-10-05T04:53:33.454Z,99167.44
2022-10-05T04:56:17.281Z,99157.56
2022-10-05T04:59:02.710Z,99165.56
2022-10-05T05:01:49.253Z,99165.56
2022-10-05T05:04:19.416Z,99160.22
2022-10-05T05:07:06.554Z,99155.94
2022-10-05T05:10:01.373Z,99166.59
2022-10-05T05:12:57.100Z,99162.91
2022-10-05T05:15:42.847Z,99162.09
2022-10-05T05:18:16.453Z,99161.25
2022-10-05T05:21:02.038Z,99157.56
2022-10-05T05:23:41.441Z,99165.56
2022-10-05T05:26:23.638Z,99164.94
2022-10-05T05:29:05.612Z,99157.56
2022-10-05T05:31:52.278Z,99152.22
2022-10-05T05:34:47.703Z,99145.25
2022-10-05T05:37:53.225Z,99153.03
2022-10-05T05:40:27.766Z,99175.25
2022-10-05T05:43:02.893Z,99187.97
2022-10-05T05:45:53.343Z,99194.94
2022-10-05T05:48:33.266Z,99187.97
2022-10-05T05:51:08.261Z,99189.59
2022-10-05T05:53:45.793Z,99171.94
2022-10-05T05:56:14.361Z,99166.59
2022-10-05T05:58:53.806Z,99168.44
2022-10-05T06:01:36.948Z,99180.94
2022-10-05T06:04:35.153Z,99182.63
2022-10-05T06:07:05.811Z,99178.09
2022-10-05T06:09:49.985Z,99182.63
2022-10-05T06:12:47.266Z,99183.44
2022-10-05T06:15:40.163Z,99190.41
2022-10-05T06:18:14.475Z,99184.25
2022-10-05T06:21:04.719Z,99179.94
2022-10-05T06:23:56.450Z,99179.94
2022-10-05T06:26:29.773Z,99181.41
2022-10-05T06:29:14.451Z,99174.22
2022-10-05T06:32:19.834Z,99183.88
2022-10-05T09:20:55.653Z,99203.94
2022-10-05T09:23:42.149Z,99195.13
2022-10-05T09:26:40.472Z,99193.25
2022-10-05T09:29:35.442Z,99203.94
2022-10-05T09:32:36.696Z,99190.59
2022-10-05T09:35:21.625Z,99195.75
2022-10-05T09:38:17.630Z,99189.59
2022-10-05T09:41:37.395Z,99189.59
2022-10-05T09:44:19.925Z,99193.91
2022-10-05T09:46:58.120Z,99195.56
2022-10-05T09:49:51.753Z,99196.38
2022-10-05T09:52:54.377Z,99201.91
2022-10-05T09:55:46.623Z,99198.22
2022-10-05T09:58:33.280Z,99202.53
2022-10-05T10:01:09.716Z,99201.53
2022-10-05T10:04:01.401Z,99199.50
2022-10-05T10:06:31.522Z,99194.97
2022-10-05T10:09:26.921Z,99190.44
2022-10-05T10:12:32.772Z,99188.59
2022-10-05T10:15:18.941Z,99207.13
2022-10-05T10:18:28.277Z,99201.59
2022-10-05T10:21:17.628Z,99212.06
2022-10-05T10:24:00.209Z,99211.09
2022-10-05T10:27:05.754Z,99211.91
2022-10-05T10:30:10.336Z,99212.72
2022-10-05T10:33:15.603Z,99212.72
2022-10-05T10:36:09.332Z,99202.03
2022-10-05T10:38:53.710Z,99203.53
2022-10-05T10:41:50.566Z,99184.81
2022-10-05T10:44:20.960Z,99183.97
2022-10-05T10:47:12.840Z,99185.63
2022-10-05T10:50:18.069Z,99185.63
2022-10-05T10:53:04.625Z,99190.97
2022-10-05T10:55:41.800Z,99199.63
2022-10-05T10:58:21.302Z,99187.28
2022-10-05T11:01:15.263Z,99187.28
2022-10-05T11:04:01.481Z,99180.94
2022-10-05T11:06:50.885Z,99185.22
2022-10-05T11:09:34.249Z,99193.25
2022-10-05T11:12:25.232Z,99187.09
2022-10-05T11:15:17.986Z,99192.25
2022-10-05T11:17:58.094Z,99190.59
2022-10-05T11:20:36.793Z,99187.72
2022-10-05T11:23:19.667Z,99187.72
2022-10-05T11:26:14.545Z,99185.88
2022-10-05T11:29:09.505Z,99176.22
2022-10-05T11:31:58.467Z,99182.38
2022-10-05T11:34:53.093Z,99172.50
2022-10-05T11:37:36.262Z,99167.16
2022-10-05T11:40:33.116Z,99172.50
2022-10-05T11:43:23.655Z,99171.50
2022-10-05T11:46:17.184Z,99162.63
2022-10-05T11:48:50.565Z,99168.81
2022-10-05T11:51:30.475Z,99166.78
2022-10-05T11:54:04.977Z,99160.59
2022-10-05T11:56:42.059Z,99164.31
2022-10-05T11:59:21.205Z,99165.13
2022-10-05T12:01:56.110Z,99158.97
2022-10-05T12:04:49.479Z,99159.59
2022-10-05T12:07:29.267Z,99153.22
2022-10-05T12:10:14.738Z,99146.22
2022-10-05T12:12:57.366Z,99150.53
2022-10-05T12:15:40.681Z,99130.00
2022-10-05T12:18:31.703Z,99128.97
2022-10-05T12:21:17.465Z,99121.97
2022-10-05T12:23:53.691Z,99141.28
2022-10-05T12:26:31.589Z,99130.59
2022-10-05T12:29:02.559Z,99126.09
2022-10-05T12:31:59.578Z,99124.44
2022-10-05T12:34:43.008Z,99125.25
2022-10-05T12:37:32.486Z,99112.94
2022-10-05T12:40:08.149Z,99106.75
2022-10-05T12:42:50.309Z,99109.22
2022-10-05T12:45:37.781Z,99114.56
2022-10-05T12:48:20.503Z,99113.56
2022-10-05T12:51:15.682Z,99105.53
2022-10-05T12:54:04.482Z,99106.53
2022-10-05T12:56:52.335Z,99100.19
2022-10-05T12:59:30.504Z,99096.69
2022-10-05T13:02:19.016Z,99098.53
2022-10-05T13:05:11.275Z,99097.50
2022-10-05T13:08:07.301Z,99097.69
2022-10-05T13:10:37.356Z,99099.38
2022-10-05T13:13:10.930Z,99092.34
2022-10-05T13:15:52.595Z,99100.19
2022-10-05T13:18:49.968Z,99097.69
2022-10-05T13:21:29.953Z,99090.72
2022-10-05T13:24:11.912Z,99089.91
2022-10-05T13:26:44.279Z,99088.88
2022-10-05T13:29:40.178Z,99086.19
2022-10-05T13:32:15.800Z,99087.22
2022-10-05T13:34:55.067Z,99094.41
2022-10-05T13:37:31.823Z,99088.22
2022-10-05T13:40:21.655Z,99085.56
2022-10-05T13:43:05.981Z,99083.72
2022-10-05T13:45:52.571Z,99082.88
2022-10-05T13:48:47.950Z,99072.81
2022-10-05T13:51:23.881Z,99064.81
2022-10-05T13:53:56.161Z,99070.97
2022-10-05T13:56:33.595Z,99065.63
2022-10-05T13:59:14.428Z,99071.78
2022-10-05T14:01:55.918Z,99070.16
2022-10-05T14:04:44.451Z,99062.13
2022-10-05T14:07:34.025Z,99054.94
2022-10-05T14:10:04.613Z,99055.97
2022-10-05T14:12:40.267Z,99055.75
2022-10-05T14:15:28.210Z,99052.06
2022-10-05T14:17:56.386Z,99062.75
2022-10-05T14:20:26.539Z,99054.75
2022-10-05T14:23:18.469Z,99056.59
2022-10-05T14:25:54.663Z,99062.75
2022-10-05T14:28:29.404Z,99067.28
2022-10-05T14:31:02.991Z,99077.13
2022-10-05T14:33:35.387Z,99069.34
2022-10-05T14:36:03.521Z,99064.81
2022-10-05T14:38:50.006Z,99059.47
2022-10-05T14:41:19.103Z,99050.41
2022-10-05T14:44:11.186Z,99055.16
2022-10-05T14:46:49.280Z,99055.16
2022-10-05T14:49:37.513Z,99055.97
2022-10-05T14:52:26.722Z,99053.31
2022-10-05T14:55:31.962Z,99049.81
2022-10-05T14:58:33.423Z,99038.50
2022-10-05T15:01:24.103Z,99047.31
2022-10-05T15:04:21.139Z,99040.13
2022-10-05T15:07:16.099Z,99039.31
2022-10-05T15:09:46.493Z,99034.16
2022-10-05T15:12:21.882Z,99042.16
2022-10-05T15:14:52.491Z,99036.81
2022-10-05T15:17:54.429Z,99036.81
2022-10-05T15:20:35.070Z,99030.84
2022-10-05T15:23:14.397Z,99028.19
2022-10-05T15:26:11.549Z,99022.00
2022-10-05T15:28:52.509Z,99020.16
2022-10-05T15:31:20.068Z,99024.88
2022-10-05T15:34:00.702Z,99022.19
2022-10-05T15:36:42.802Z,99016.03
2022-10-05T15:39:18.332Z,99015.22
2022-10-05T15:42:00.862Z,99010.88
2022-10-05T15:44:44.403Z,99009.25
2022-10-05T15:47:35.395Z,99005.53
2022-10-05T15:50:21.756Z,99003.91
2022-10-05T15:52:52.692Z,99001.44
2022-10-05T15:55:35.300Z,99014.59
2022-10-05T15:58:20.709Z,99012.13
2022-10-05T16:00:51.698Z,99013.16
2022-10-05T16:03:28.450Z,99014.59
2022-10-05T16:06:27.491Z,99012.13
2022-10-05T16:09:03.376Z,99010.47
2022-10-05T16:11:53.290Z,99017.66
2022-10-05T16:14:32.615Z,99014.97
2022-10-05T16:17:08.855Z,99013.34
2022-10-05T16:20:03.128Z,99012.50
2022-10-05T16:22:41.126Z,99016.97
2022-10-05T16:25:22.211Z,99022.34
2022-10-05T16:28:06.096Z,99016.16
2022-10-05T16:30:49.946Z,99018.84
2022-10-05T16:33:54.347Z,99020.69
2022-10-05T16:36:44.444Z,99013.72
2022-10-05T16:39:32.885Z,99014.53
2022-10-05T16:42:17.061Z,99014.53
2022-10-05T16:45:06.841Z,99016.38
2022-10-05T16:47:37.376Z,99020.69
2022-10-05T16:50:29.496Z,99008.38
2022-10-05T16:53:01.787Z,99012.69
2022-10-05T16:55:46.450Z,99019.06
2022-10-05T16:58:21.564Z,99010.81
2022-10-05T17:00:58.176Z,99011.03
2022-10-05T17:03:57.996Z,99010.00
2022-10-05T17:06:37.095Z,99007.34
2022-10-05T17:09:12.229Z,99003.84
2022-10-05T17:12:04.663Z,99001.38
2022-10-05T17:14:53.840Z,99006.72
2022-10-05T17:17:29.952Z,99001.38
2022-10-05T17:20:18.913Z,99000.53
2022-10-05T17:23:14.858Z,98999.72
2022-10-05T17:25:55.159Z,99005.06
2022-10-05T17:28:37.675Z,99003.41
2022-10-05T17:31:13.508Z,99007.94
2022-10-05T17:33:59.345Z,99007.13
2022-10-05T17:36:44.069Z,99007.13
2022-10-05T17:39:20.897Z,99008.13
2022-10-05T17:41:50.201Z,99009.78
2022-10-05T17:44:21.288Z,99000.94
2022-10-05T17:46:57.553Z,98996.63
2022-10-05T17:50:14.441Z,99000.09
2022-10-05T17:53:02.945Z,99006.50
2022-10-05T17:55:33.990Z,99006.50
2022-10-05T17:58:27.290Z,99006.50
2022-10-05T18:00:57.850Z,99002.16
2022-10-05T18:03:42.770Z,99002.97
2022-10-05T18:06:25.347Z,99003.19
2022-10-05T18:09:12.517Z,98996.00
2022-10-05T18:11:44.982Z,99002.16
2022-10-05T18:14:25.520Z,99002.16
2022-10-05T18:17:03.670Z,99003.19
2022-10-05T18:19:33.226Z,99015.72
2022-10-05T18:22:09.340Z,99024.56
2022-10-05T18:25:03.848Z,99025.56
2022-10-05T18:27:37.315Z,99026.41
2022-10-05T18:30:23.523Z,99026.41
2022-10-05T18:33:15.000Z,99021.06
2022-10-05T18:35:50.377Z,99023.94
2022-10-05T18:38:53.936Z,99020.22
2022-10-05T18:41:45.119Z,99018.59
2022-10-05T18:44:12.465Z,99017.78
2022-10-05T18:46:46.166Z,99022.25
2022-10-05T18:49:39.128Z,99022.25
2022-10-05T18:52:23.398Z,99024.13
2022-10-05T18:55:37.391Z,99019.59
2022-10-05T18:58:23.333Z,99023.94
2022-10-05T19:01:14.365Z,99027.59
2022-10-05T19:04:13.953Z,99030.28
2022-10-05T19:07:03.330Z,99025.16
2022-10-05T19:09:43.762Z,99023.31
2022-10-05T19:12:29.467Z,99029.66
2022-10-05T19:15:25.197Z,99029.66
2022-10-05T19:18:12.545Z,99033.16
2022-10-05T19:21:01.429Z,99035.84
2022-10-05T19:24:01.173Z,99033.34
2022-10-05T19:27:03.582Z,99035.84
2022-10-05T19:29:52.210Z,99038.69
2022-10-05T19:32:39.101Z,99044.03
2022-10-05T19:35:09.476Z,99039.72
2022-10-05T19:38:14.444Z,99037.03
2022-10-05T19:40:43.154Z,99037.03
2022-10-05T19:43:46.152Z,99041.56
2022-10-05T19:46:22.973Z,99043.41
2022-10-05T19:48:54.390Z,99038.06
2022-10-05T19:51:28.746Z,99039.09
2022-10-05T19:54:02.070Z,99044.44
2022-10-05T19:56:34.666Z,99044.44
2022-10-05T19:59:17.348Z,99044.44
2022-10-05T20:01:50.159Z,99036.44
2022-10-05T20:04:37.889Z,99037.44
2022-10-05T20:07:05.466Z,99042.78
2022-10-05T20:09:51.759Z,99047.13
2022-10-05T20:12:22.924Z,99044.44
2022-10-05T20:15:26.862Z,99054.28
2022-10-05T20:18:12.909Z,99043.59
2022-10-05T20:20:45.713Z,99046.28
2022-10-05T20:23:27.990Z,99043.81
2022-10-05T20:26:14.213Z,99042.78
2022-10-05T20:28:41.677Z,99048.13
2022-10-05T20:31:09.365Z,99042.78
2022-10-05T20:33:36.753Z,99038.47
2022-10-05T20:36:04.575Z,99041.16
2022-10-05T20:38:33.703Z,99039.47
2022-10-05T20:41:04.402Z,99034.59
2022-10-05T20:43:31.721Z,99041.59
2022-10-05T20:45:59.262Z,99043.91
2022-10-05T20:48:27.056Z,99045.78
2022-10-05T20:50:54.745Z,99031.38
2022-10-05T20:53:22.325Z,99043.94
2022-10-05T20:55:49.785Z,99045.78
2022-10-05T20:58:17.929Z,99033.44
2022-10-05T21:01:05.024Z,99045.97
2022-10-05T21:03:32.817Z,99039.81
2022-10-05T21:06:00.425Z,99041.84
2022-10-05T21:08:28.083Z,99036.28
2022-10-05T21:10:55.862Z,99043.69
2022-10-05T21:13:25.399Z,99045.53
2022-10-05T21:15:52.809Z,99036.69
2022-10-05T21:18:38.485Z,99046.56
2022-10-05T21:21:06.318Z,99046.56
2022-10-05T21:23:34.798Z,99050.25
2022-10-05T21:26:02.909Z,99052.91
2022-10-05T21:28:31.749Z,99057.63
2022-10-05T21:31:00.526Z,99056.00
2022-10-05T21:33:28.023Z,99050.66
2022-10-05T21:35:55.749Z,99047.97
2022-10-05T21:38:23.258Z,99048.97
2022-10-05T21:40:51.176Z,99051.66
2022-10-05T21:43:18.832Z,99048.97
2022-10-05T21:45:47.246Z,99046.53
2022-10-05T21:48:16.516Z,99051.88
2022-10-05T21:50:44.890Z,99056.38
2022-10-05T21:53:16.366Z,99056.38
2022-10-05T21:55:46.951Z,99050.22
2022-10-05T21:58:16.041Z,99047.72
2022-10-05T22:00:43.496Z,99048.56
2022-10-05T22:03:11.500Z,99053.06
2022-10-05T22:05:39.157Z,99046.91
2022-10-05T22:08:06.749Z,99052.25
2022-10-05T22:10:34.397Z,99055.13
2022-10-05T22:13:03.649Z,99048.94
2022-10-05T22:15:31.684Z,99056.78
2022-10-05T22:17:59.745Z,99049.78
2022-10-05T22:20:27.248Z,99053.47
2022-10-05T22:22:54.890Z,99050.81
2022-10-05T22:25:22.845Z,99048.13
2022-10-05T22:27:51.061Z,99047.31
2022-10-05T22:30:19.859Z,99046.50
2022-10-05T22:32:47.369Z,99046.50
2022-10-05T22:35:14.776Z,99052.84
2022-10-05T22:37:42.123Z,99049.34
2022-10-05T22:40:11.449Z,99045.84
2022-10-05T22:42:40.634Z,99048.53
2022-10-05T22:45:08.792Z,99058.19
2022-10-05T22:47:36.323Z,99054.88
2022-10-05T22:50:03.879Z,99054.88
2022-10-05T22:52:31.194Z,99051.56
2022-10-05T22:54:58.749Z,99058.59
2022-10-05T22:57:26.105Z,99054.25
2022-10-05T22:59:54.161Z,99054.25
2022-10-05T23:02:21.829Z,99064.94
2022-10-05T23:04:49.290Z,99064.94
2022-10-05T23:07:17.643Z,99071.31
2022-10-05T23:09:45.130Z,99072.13
2022-10-05T23:12:13.318Z,99082.00
2022-10-05T23:14:41.539Z,99085.66
2022-10-05T23:17:09.266Z,99099.03
2022-10-05T23:19:36.694Z,99091.00
2022-10-05T23:22:04.079Z,99090.38
2022-10-05T23:24:31.637Z,99094.72
2022-10-05T23:26:59.038Z,99101.06
2022-10-05T23:29:28.164Z,99100.25
2022-10-05T23:31:55.778Z,99095.94
2022-10-05T23:34:23.275Z,99105.78
2022-10-05T23:36:50.605Z,99114.63
2022-10-05T23:39:18.161Z,99116.44
2022-10-05T23:41:45.443Z,99117.50
2022-10-05T23:44:13.052Z,99114.63
2022-10-05T23:46:40.583Z,99120.16
2022-10-05T23:49:08.683Z,99120.16
2022-10-05T23:51:36.546Z,99122.84
2022-10-05T23:54:04.086Z,99127.34
2022-10-05T23:56:31.641Z,99127.34
2022-10-05T23:58:58.961Z,99132.69
